createdAt,value
2018-02-17T00:02:23.492Z,100522.73
2018-02-17T00:04:51.035Z,100528.23
2018-02-17T00:07:18.600Z,100525.27
2018-02-17T00:09:46.196Z,100521.45
2018-02-17T00:12:13.750Z,100523.64
2018-02-17T00:14:41.344Z,100521.05
2018-02-17T00:17:08.898Z,100515.43
2018-02-17T00:19:36.434Z,100507.61
2018-02-17T00:22:04.029Z,100507.61
2018-02-17T00:24:31.636Z,100509.34
2018-02-17T00:26:59.750Z,100512.36
2018-02-17T00:29:27.331Z,100512.33
2018-02-17T00:31:54.907Z,100507.13
2018-02-17T00:34:22.447Z,100507.95
2018-02-17T00:36:50.470Z,100508.37
2018-02-17T00:39:18.043Z,100502.34
2018-02-17T00:41:45.642Z,100502.78
2018-02-17T00:44:13.200Z,100503.62
2018-02-17T00:46:40.792Z,100499.71
2018-02-17T00:49:08.397Z,100496.23
2018-02-17T00:51:35.952Z,100490.17
2018-02-17T00:54:03.939Z,100481.53
2018-02-17T00:56:31.544Z,100481.54
2018-02-17T00:58:59.095Z,100485.88
2018-02-17T01:01:26.649Z,100487.56
2018-02-17T01:03:54.252Z,100494.50
2018-02-17T01:06:21.791Z,100484.52
2018-02-17T01:08:49.339Z,100487.13
2018-02-17T01:11:16.921Z,100488.93
2018-02-17T01:13:44.483Z,100491.17
2018-02-17T01:16:12.085Z,100500.27
2018-02-17T01:18:39.634Z,100497.20
2018-02-17T01:21:07.228Z,100499.38
2018-02-17T01:23:34.766Z,100505.02
2018-02-17T01:26:02.560Z,100497.63
2018-02-17T01:28:30.121Z,100488.05
2018-02-17T01:30:57.678Z,100486.29
2018-02-17T01:33:25.280Z,100488.42
2018-02-17T01:35:53.005Z,100492.74
2018-02-17T01:38:20.552Z,100492.28
2018-02-17T01:40:48.142Z,100486.61
2018-02-17T01:43:16.121Z,100492.23
2018-02-17T01:45:43.695Z,100497.02
2018-02-17T01:48:11.243Z,100489.65
2018-02-17T01:50:39.166Z,100492.28
2018-02-17T01:53:06.734Z,100493.16
2018-02-17T01:55:34.337Z,100488.89
2018-02-17T01:58:01.894Z,100488.91
2018-02-17T02:00:29.437Z,100494.58
2018-02-17T02:02:57.043Z,100496.77
2018-02-17T02:05:24.589Z,100495.05
2018-02-17T02:07:52.182Z,100496.30
2018-02-17T02:10:20.045Z,100498.09
2018-02-17T02:12:47.615Z,100505.01
2018-02-17T02:15:15.211Z,100502.41
2018-02-17T02:17:42.755Z,100496.77
2018-02-17T02:20:10.928Z,100502.40
2018-02-17T02:22:38.535Z,100498.95
2018-02-17T02:25:06.520Z,100497.20
2018-02-17T02:27:34.223Z,100504.58
2018-02-17T02:30:01.819Z,100501.52
2018-02-17T02:32:29.368Z,100486.78
2018-02-17T02:34:56.913Z,100485.05
2018-02-17T02:37:24.503Z,100493.73
2018-02-17T02:39:52.092Z,100498.09
2018-02-17T02:42:19.649Z,100495.05
2018-02-17T02:44:47.256Z,100497.22
2018-02-17T02:47:14.791Z,100499.80
2018-02-17T02:49:42.748Z,100501.13
2018-02-17T02:52:10.334Z,100503.25
2018-02-17T02:54:37.884Z,100508.42
2018-02-17T02:57:05.476Z,100509.75
2018-02-17T02:59:33.628Z,100512.32
2018-02-17T03:02:01.206Z,100511.44
2018-02-17T03:04:28.800Z,100512.72
2018-02-17T03:06:56.681Z,100515.16
2018-02-17T03:09:24.265Z,100517.31
2018-02-17T03:11:51.861Z,100513.24
2018-02-17T03:14:19.412Z,100515.01
2018-02-17T03:16:46.950Z,100520.66
2018-02-17T03:19:14.518Z,100516.64
2018-02-17T03:21:42.102Z,100516.16
2018-02-17T03:24:10.088Z,100526.38
2018-02-17T03:26:37.670Z,100526.25
2018-02-17T03:29:05.720Z,100529.97
2018-02-17T03:31:33.289Z,100529.81
2018-02-17T03:34:00.887Z,100525.28
2018-02-17T03:36:29.165Z,100526.73
2018-02-17T03:38:57.060Z,100525.78
2018-02-17T03:41:24.601Z,100535.63
2018-02-17T03:43:52.182Z,100532.22
2018-02-17T03:46:19.778Z,100525.34
2018-02-17T03:48:47.322Z,100520.52
2018-02-17T03:51:14.861Z,100514.56
2018-02-17T03:53:42.596Z,100522.06
2018-02-17T03:56:10.173Z,100522.94
2018-02-17T03:58:37.713Z,100519.39
2018-02-17T04:01:05.294Z,100517.90
2018-02-17T04:03:32.878Z,100516.66
2018-02-17T04:06:01.234Z,100520.66
2018-02-17T04:08:28.839Z,100523.34
2018-02-17T04:10:56.402Z,100527.78
2018-02-17T04:13:23.982Z,100526.83
2018-02-17T04:15:51.558Z,100530.70
2018-02-17T04:18:19.154Z,100531.86
2018-02-17T04:20:46.749Z,100523.14
2018-02-17T04:23:14.298Z,100515.65
2018-02-17T04:25:42.166Z,100515.50
2018-02-17T04:28:10.061Z,100521.23
2018-02-17T04:30:37.613Z,100523.06
2018-02-17T04:33:05.462Z,100527.72
2018-02-17T04:35:33.006Z,100524.95
2018-02-17T04:38:00.568Z,100524.66
2018-02-17T04:43:48.530Z,100535.52
2018-02-17T04:46:21.553Z,100526.53
2018-02-17T04:48:53.620Z,100529.86
2018-02-17T04:54:42.955Z,100532.95
2018-02-17T05:00:16.381Z,100519.95
2018-02-17T05:02:46.784Z,100534.12
2018-02-17T05:05:14.394Z,100534.48
2018-02-17T05:07:41.970Z,100540.41
2018-02-17T05:10:09.587Z,100539.27
2018-02-17T05:12:37.184Z,100536.41
2018-02-17T05:15:21.546Z,100544.36
2018-02-17T05:17:52.140Z,100544.58
2018-02-17T05:20:20.464Z,100544.67
2018-02-17T05:22:48.091Z,100545.10
2018-02-17T05:25:27.033Z,100542.26
2018-02-17T05:27:54.948Z,100538.48
2018-02-17T05:30:24.861Z,100546.77
2018-02-17T05:32:57.829Z,100534.22
2018-02-17T05:35:31.297Z,100535.13
2018-02-17T05:37:58.949Z,100534.74
2018-02-17T05:43:26.470Z,100547.33
2018-02-17T05:45:58.118Z,100542.58
2018-02-17T05:48:27.362Z,100544.36
2018-02-17T05:50:54.983Z,100547.82
2018-02-17T05:53:22.522Z,100546.52
2018-02-17T05:55:50.102Z,100550.46
2018-02-17T05:58:17.735Z,100549.20
2018-02-17T06:00:45.387Z,100547.05
2018-02-17T06:03:12.978Z,100544.89
2018-02-17T06:05:40.569Z,100547.06
2018-02-17T06:08:08.673Z,100541.38
2018-02-17T06:10:36.263Z,100549.52
2018-02-17T06:13:03.871Z,100553.36
2018-02-17T06:15:31.414Z,100562.83
2018-02-17T06:17:58.967Z,100561.28
2018-02-17T06:20:26.555Z,100559.93
2018-02-17T06:22:54.106Z,100558.77
2018-02-17T06:25:21.690Z,100560.36
2018-02-17T06:27:50.345Z,100570.25
2018-02-17T06:30:17.938Z,100570.47
2018-02-17T06:32:46.444Z,100573.59
2018-02-17T06:35:14.047Z,100580.19
2018-02-17T06:37:41.594Z,100579.92
2018-02-17T06:40:09.152Z,100574.06
2018-02-17T06:42:36.759Z,100570.23
2018-02-17T06:45:04.307Z,100564.83
2018-02-17T06:47:31.859Z,100574.52
2018-02-17T06:49:59.512Z,100590.19
2018-02-17T06:52:27.048Z,100592.87
2018-02-17T06:54:54.604Z,100593.56
2018-02-17T06:57:22.213Z,100599.55
2018-02-17T06:59:49.827Z,100579.12
2018-02-17T07:02:17.420Z,100584.28
2018-02-17T07:04:45.010Z,100589.70
2018-02-17T07:07:12.714Z,100594.41
2018-02-17T07:09:40.370Z,100587.42
2018-02-17T07:12:08.198Z,100581.12
2018-02-17T07:14:35.978Z,100594.38
2018-02-17T07:17:03.518Z,100585.09
2018-02-17T07:19:31.080Z,100586.05
2018-02-17T07:21:58.688Z,100595.58
2018-02-17T07:24:26.847Z,100595.53
2018-02-17T07:26:54.524Z,100575.67
2018-02-17T07:29:22.102Z,100562.03
2018-02-17T07:31:50.058Z,100555.97
2018-02-17T07:34:17.652Z,100557.26
2018-02-17T07:36:46.335Z,100563.64
2018-02-17T07:39:13.898Z,100564.46
2018-02-17T07:41:41.970Z,100560.44
2018-02-17T07:44:09.525Z,100544.64
2018-02-17T07:46:37.114Z,100542.89
2018-02-17T07:49:04.725Z,100547.02
2018-02-17T07:51:32.587Z,100539.14
2018-02-17T07:54:00.108Z,100546.63
2018-02-17T07:56:27.701Z,100560.44
2018-02-17T07:58:55.246Z,100558.48
2018-02-17T08:01:22.826Z,100561.29
2018-02-17T08:03:50.366Z,100559.68
2018-02-17T08:06:17.976Z,100546.61
2018-02-17T08:08:45.563Z,100548.22
2018-02-17T08:11:13.163Z,100549.88
2018-02-17T08:13:40.703Z,100543.98
2018-02-17T08:16:08.574Z,100552.05
2018-02-17T08:18:36.172Z,100549.36
2018-02-17T08:21:03.719Z,100555.20
2018-02-17T08:23:31.305Z,100550.55
2018-02-17T08:25:58.895Z,100549.09
2018-02-17T08:28:26.592Z,100547.98
2018-02-17T08:30:54.239Z,100543.30
2018-02-17T08:33:21.804Z,100549.59
2018-02-17T08:35:49.391Z,100551.66
2018-02-17T08:38:16.976Z,100555.31
2018-02-17T08:40:45.357Z,100545.47
2018-02-17T08:43:12.939Z,100545.36
2018-02-17T08:45:40.523Z,100544.33
2018-02-17T08:48:08.387Z,100550.01
2018-02-17T08:50:35.938Z,100551.20
2018-02-17T08:53:03.911Z,100541.73
2018-02-17T08:55:31.468Z,100539.91
2018-02-17T08:57:59.042Z,100541.66
2018-02-17T09:00:26.817Z,100541.47
2018-02-17T09:02:54.826Z,100538.48
2018-02-17T09:05:22.449Z,100535.30
2018-02-17T09:07:50.363Z,100532.92
2018-02-17T09:10:18.014Z,100534.98
2018-02-17T09:12:45.585Z,100532.19
2018-02-17T09:15:13.130Z,100528.95
2018-02-17T09:17:40.723Z,100520.98
2018-02-17T09:20:08.870Z,100524.48
2018-02-17T09:22:37.887Z,100518.15
2018-02-17T09:25:05.474Z,100518.03
2018-02-17T09:27:33.065Z,100513.00
2018-02-17T09:30:00.665Z,100513.51
2018-02-17T09:32:28.307Z,100507.23
2018-02-17T09:34:55.896Z,100497.80
2018-02-17T09:37:23.450Z,100495.98
2018-02-17T09:39:51.041Z,100486.38
2018-02-17T09:42:18.586Z,100485.18
2018-02-17T09:44:46.179Z,100481.17
2018-02-17T09:47:13.978Z,100477.98
2018-02-17T09:49:41.560Z,100477.83
2018-02-17T09:52:09.199Z,100474.08
2018-02-17T09:54:36.742Z,100475.05
2018-02-17T09:57:04.724Z,100467.57
2018-02-17T09:59:32.311Z,100466.45
2018-02-17T10:01:59.916Z,100466.80
2018-02-17T10:04:27.508Z,100460.84
2018-02-17T10:06:55.056Z,100452.67
2018-02-17T10:09:22.639Z,100453.61
2018-02-17T10:11:50.184Z,100449.88
2018-02-17T10:14:17.791Z,100447.94
2018-02-17T10:16:45.353Z,100443.03
2018-02-17T10:19:12.912Z,100441.86
2018-02-17T10:21:40.503Z,100443.09
2018-02-17T10:24:08.096Z,100434.23
2018-02-17T10:26:36.359Z,100432.83
2018-02-17T10:29:04.178Z,100429.26
2018-02-17T10:31:31.775Z,100422.59
2018-02-17T10:33:59.805Z,100420.80
2018-02-17T10:36:27.401Z,100418.11
2018-02-17T10:38:54.984Z,100413.22
2018-02-17T10:41:22.530Z,100409.25
2018-02-17T10:43:50.122Z,100408.76
2018-02-17T10:46:17.706Z,100401.67
2018-02-17T10:48:45.931Z,100403.84
2018-02-17T10:51:13.470Z,100395.03
2018-02-17T10:53:41.071Z,100399.47
2018-02-17T10:56:08.631Z,100396.87
2018-02-17T10:58:36.226Z,100395.98
2018-02-17T11:01:03.831Z,100396.41
2018-02-17T11:03:31.419Z,100396.02
2018-02-17T11:05:59.667Z,100395.16
2018-02-17T11:08:27.267Z,100389.95
2018-02-17T11:10:54.849Z,100383.52
2018-02-17T11:13:22.422Z,100382.02
2018-02-17T11:15:50.851Z,100385.52
2018-02-17T11:18:18.445Z,100386.14
2018-02-17T11:20:46.433Z,100373.64
2018-02-17T11:23:14.494Z,100371.50
2018-02-17T11:25:42.034Z,100371.22
2018-02-17T11:28:09.588Z,100370.43
2018-02-17T11:30:37.184Z,100362.70
2018-02-17T11:33:04.735Z,100357.93
2018-02-17T11:35:32.325Z,100350.56
2018-02-17T11:37:59.872Z,100355.91
2018-02-17T11:40:27.467Z,100346.32
2018-02-17T11:42:55.010Z,100343.23
2018-02-17T11:45:22.679Z,100345.01
2018-02-17T11:47:50.502Z,100331.50
2018-02-17T11:50:18.366Z,100329.02
2018-02-17T11:52:46.433Z,100327.68
2018-02-17T11:55:14.340Z,100324.63
2018-02-17T11:57:42.165Z,100322.45
2018-02-17T12:00:09.755Z,100317.29
2018-02-17T12:02:38.154Z,100314.20
2018-02-17T12:05:05.758Z,100314.76
2018-02-17T12:07:34.287Z,100313.05
2018-02-17T12:10:02.346Z,100309.96
2018-02-17T12:12:29.938Z,100314.36
2018-02-17T12:14:57.525Z,100314.78
2018-02-17T12:17:25.132Z,100316.98
2018-02-17T12:19:52.956Z,100313.50
2018-02-17T12:22:20.668Z,100308.70
2018-02-17T12:24:48.210Z,100307.39
2018-02-17T12:27:15.813Z,100312.22
2018-02-17T12:29:43.437Z,100313.11
2018-02-17T12:32:10.978Z,100304.80
2018-02-17T12:34:38.925Z,100306.56
2018-02-17T12:37:06.949Z,100306.11
2018-02-17T12:39:35.227Z,100306.91
2018-02-17T12:42:02.816Z,100301.77
2018-02-17T12:44:30.548Z,100300.36
2018-02-17T12:46:58.138Z,100301.81
2018-02-17T12:49:25.732Z,100302.67
2018-02-17T12:51:53.310Z,100300.95
2018-02-17T12:54:20.862Z,100305.45
2018-02-17T12:56:48.420Z,100302.98
2018-02-17T12:59:15.972Z,100304.57
2018-02-17T13:01:43.723Z,100299.55
2018-02-17T13:04:11.328Z,100300.22
2018-02-17T13:06:38.923Z,100295.69
2018-02-17T13:09:06.626Z,100292.27
2018-02-17T13:11:34.244Z,100292.61
2018-02-17T13:14:02.673Z,100285.33
2018-02-17T13:16:30.251Z,100280.68
2018-02-17T13:18:57.822Z,100275.38
2018-02-17T13:21:26.098Z,100284.13
2018-02-17T13:23:53.699Z,100283.86
2018-02-17T13:26:21.283Z,100279.59
2018-02-17T13:28:48.839Z,100283.52
2018-02-17T13:31:16.426Z,100274.42
2018-02-17T13:33:43.981Z,100278.06
2018-02-17T13:36:12.284Z,100270.66
2018-02-17T13:38:40.260Z,100270.55
2018-02-17T13:41:07.810Z,100264.75
2018-02-17T13:43:35.417Z,100269.92
2018-02-17T13:46:02.967Z,100265.04
2018-02-17T13:48:30.714Z,100260.05
2018-02-17T13:50:58.882Z,100251.47
2018-02-17T13:53:26.474Z,100251.27
2018-02-17T13:55:54.031Z,100247.98
2018-02-17T13:58:22.138Z,100248.55
2018-02-17T14:00:49.742Z,100249.63
2018-02-17T14:03:17.361Z,100243.19
2018-02-17T14:05:45.487Z,100235.86
2018-02-17T14:08:13.051Z,100232.54
2018-02-17T14:10:40.690Z,100237.06
2018-02-17T14:13:08.306Z,100234.50
2018-02-17T14:15:35.845Z,100228.49
2018-02-17T14:18:03.453Z,100225.98
2018-02-17T14:20:31.209Z,100225.27
2018-02-17T14:22:58.766Z,100226.70
2018-02-17T14:25:26.354Z,100223.25
2018-02-17T14:27:54.450Z,100220.66
2018-02-17T14:30:22.000Z,100215.44
2018-02-17T14:32:50.068Z,100222.45
2018-02-17T14:35:17.616Z,100229.48
2018-02-17T14:37:45.180Z,100220.69
2018-02-17T14:40:13.207Z,100221.63
2018-02-17T14:42:40.769Z,100226.03
2018-02-17T14:45:08.366Z,100219.53
2018-02-17T14:47:35.924Z,100221.33
2018-02-17T14:50:03.742Z,100224.41
2018-02-17T14:52:31.320Z,100223.20
2018-02-17T14:54:58.958Z,100224.97
2018-02-17T14:57:26.813Z,100220.63
2018-02-17T14:59:54.483Z,100227.22
2018-02-17T15:02:23.271Z,100222.06
2018-02-17T15:04:51.087Z,100221.73
2018-02-17T15:07:20.714Z,100222.64
2018-02-17T15:09:48.262Z,100218.31
2018-02-17T15:12:15.859Z,100224.05
2018-02-17T15:14:44.112Z,100228.92
2018-02-17T15:17:13.069Z,100228.11
2018-02-17T15:19:41.052Z,100232.09
2018-02-17T15:22:08.605Z,100236.09
2018-02-17T15:24:37.007Z,100235.27
2018-02-17T15:27:05.361Z,100239.30
2018-02-17T15:29:33.342Z,100234.11
2018-02-17T15:32:00.896Z,100246.86
2018-02-17T15:34:28.960Z,100236.53
2018-02-17T15:36:57.075Z,100236.63
2018-02-17T15:39:24.645Z,100249.88
2018-02-17T15:41:52.656Z,100250.44
2018-02-17T15:44:20.200Z,100250.53
2018-02-17T15:46:47.791Z,100257.06
2018-02-17T15:49:16.144Z,100256.26
2018-02-17T15:51:44.209Z,100262.95
2018-02-17T15:54:14.123Z,100263.56
2018-02-17T15:56:43.151Z,100270.65
2018-02-17T15:59:10.788Z,100272.39
2018-02-17T16:01:38.521Z,100275.64
2018-02-17T16:04:06.840Z,100278.28
2018-02-17T16:06:34.538Z,100276.41
2018-02-17T16:09:02.122Z,100285.83
2018-02-17T16:11:30.845Z,100280.63
2018-02-17T16:13:58.407Z,100288.25
2018-02-17T16:16:25.994Z,100288.98
2018-02-17T16:18:53.690Z,100286.62
2018-02-17T16:21:21.506Z,100285.44
2018-02-17T16:23:49.486Z,100287.02
2018-02-17T16:26:17.048Z,100287.89
2018-02-17T16:28:44.653Z,100289.51
2018-02-17T16:31:13.695Z,100287.66
2018-02-17T16:33:41.294Z,100293.88
2018-02-17T16:36:09.617Z,100294.63
2018-02-17T16:38:37.741Z,100288.25
2018-02-17T16:41:05.351Z,100298.75
2018-02-17T16:43:32.939Z,100298.52
2018-02-17T16:46:00.518Z,100301.02
2018-02-17T16:48:28.874Z,100297.00
2018-02-17T16:50:56.423Z,100297.84
2018-02-17T16:53:24.019Z,100297.53
2018-02-17T16:55:51.613Z,100309.75
2018-02-17T16:58:20.097Z,100304.89
2018-02-17T17:00:48.069Z,100308.37
2018-02-17T17:03:16.299Z,100300.73
2018-02-17T17:05:44.831Z,100304.40
2018-02-17T17:08:12.604Z,100304.59
2018-02-17T17:10:40.170Z,100297.87
2018-02-17T17:13:08.124Z,100297.36
2018-02-17T17:15:36.344Z,100295.66
2018-02-17T17:18:03.934Z,100291.69
2018-02-17T17:20:31.907Z,100294.19
2018-02-17T17:23:00.035Z,100289.80
2018-02-17T17:25:29.125Z,100295.39
2018-02-17T17:27:58.677Z,100287.06
2018-02-17T17:30:27.550Z,100293.45
2018-02-17T17:32:55.427Z,100292.02
2018-02-17T17:35:23.892Z,100295.50
2018-02-17T17:37:53.128Z,100299.46
2018-02-17T17:40:21.513Z,100301.45
2018-02-17T17:42:49.094Z,100302.53
2018-02-17T17:45:16.713Z,100303.62
2018-02-17T17:47:46.052Z,100305.89
2018-02-17T17:50:14.155Z,100310.12
2018-02-17T17:52:41.717Z,100313.38
2018-02-17T17:55:10.180Z,100303.45
2018-02-17T17:57:39.146Z,100309.80
2018-02-17T18:00:07.365Z,100316.78
2018-02-17T18:02:35.604Z,100314.70
2018-02-17T18:05:04.011Z,100313.50
2018-02-17T18:07:32.219Z,100312.11
2018-02-17T18:10:00.134Z,100317.75
2018-02-17T18:12:27.689Z,100323.66
2018-02-17T18:14:55.635Z,100317.56
2018-02-17T18:17:24.561Z,100319.23
2018-02-17T18:19:52.106Z,100321.25
2018-02-17T18:22:20.199Z,100317.86
2018-02-17T18:24:49.511Z,100314.78
2018-02-17T18:27:17.811Z,100321.39
2018-02-17T18:29:45.403Z,100319.75
2018-02-17T18:32:13.288Z,100326.27
2018-02-17T18:34:40.855Z,100324.02
2018-02-17T18:37:08.939Z,100332.13
2018-02-17T18:39:37.011Z,100329.84
2018-02-17T18:42:04.572Z,100325.48
2018-02-17T18:44:33.237Z,100328.93
2018-02-17T18:47:01.768Z,100330.62
2018-02-17T18:49:30.312Z,100328.72
2018-02-17T18:51:59.381Z,100326.55
2018-02-17T18:54:27.700Z,100319.84
2018-02-17T18:56:55.247Z,100319.36
2018-02-17T18:59:24.589Z,100319.11
2018-02-17T19:01:52.709Z,100319.47
2018-02-17T19:04:21.474Z,100331.08
2018-02-17T19:06:49.169Z,100326.17
2018-02-17T19:09:17.247Z,100325.72
2018-02-17T19:11:45.188Z,100330.94
2018-02-17T19:14:12.796Z,100331.36
2018-02-17T19:16:40.397Z,100334.80
2018-02-17T19:19:07.999Z,100334.96
2018-02-17T19:21:35.542Z,100335.36
2018-02-17T19:24:03.878Z,100333.08
2018-02-17T19:26:31.433Z,100326.44
2018-02-17T19:28:58.992Z,100328.52
2018-02-17T19:31:26.583Z,100327.16
2018-02-17T19:33:55.132Z,100323.41
2018-02-17T19:36:23.044Z,100318.39
2018-02-17T19:38:50.663Z,100323.27
2018-02-17T19:41:18.240Z,100321.81
2018-02-17T19:43:46.703Z,100318.20
2018-02-17T19:46:14.296Z,100322.17
2018-02-17T19:48:43.498Z,100317.03
2018-02-17T19:51:11.640Z,100321.28
2018-02-17T19:53:39.238Z,100314.80
2018-02-17T19:56:08.897Z,100311.81
2018-02-17T19:58:37.164Z,100311.20
2018-02-17T20:01:04.735Z,100309.27
2018-02-17T20:03:32.591Z,100315.16
2018-02-17T20:06:00.152Z,100306.75
2018-02-17T20:08:28.375Z,100309.25
2018-02-17T20:10:56.899Z,100304.84
2018-02-17T20:13:25.342Z,100301.80
2018-02-17T20:15:55.320Z,100308.13
2018-02-17T20:18:22.917Z,100309.35
2018-02-17T20:20:52.482Z,100307.03
2018-02-17T20:23:20.440Z,100304.67
2018-02-17T20:25:49.055Z,100302.27
2018-02-17T20:28:17.231Z,100305.63
2018-02-17T20:30:46.470Z,100302.92
2018-02-17T20:33:14.024Z,100305.89
2018-02-17T20:35:41.681Z,100300.70
2018-02-17T20:38:09.727Z,100299.41
2018-02-17T20:40:37.291Z,100303.60
2018-02-17T20:43:05.839Z,100300.17
2018-02-17T20:45:33.480Z,100298.89
2018-02-17T20:48:01.355Z,100292.52
2018-02-17T20:50:28.908Z,100294.98
2018-02-17T20:52:57.219Z,100290.27
2018-02-17T20:55:25.348Z,100289.66
2018-02-17T20:57:53.246Z,100287.45
2018-02-17T21:00:22.175Z,100289.60
2018-02-17T21:02:50.337Z,100295.39
2018-02-17T21:05:18.460Z,100292.90
2018-02-17T21:07:46.435Z,100285.55
2018-02-17T21:10:14.787Z,100292.02
2018-02-17T21:12:42.854Z,100301.94
2018-02-17T21:15:12.007Z,100300.91
2018-02-17T21:17:40.148Z,100304.81
2018-02-17T21:20:08.346Z,100297.02
2018-02-17T21:22:35.978Z,100299.13
2018-02-17T21:25:03.970Z,100303.25
2018-02-17T21:27:31.545Z,100304.08
2018-02-17T21:29:59.396Z,100305.87
2018-02-17T21:32:26.986Z,100306.67
2018-02-17T21:34:54.569Z,100304.57
2018-02-17T21:37:22.755Z,100306.02
2018-02-17T21:39:50.468Z,100296.27
2018-02-17T21:42:18.059Z,100298.52
2018-02-17T21:44:46.042Z,100293.28
2018-02-17T21:47:15.065Z,100289.73
2018-02-17T21:49:42.664Z,100287.00
2018-02-17T21:52:10.431Z,100289.50
2018-02-17T21:54:38.093Z,100284.61
2018-02-17T21:57:05.735Z,100283.73
2018-02-17T21:59:33.405Z,100284.56
2018-02-17T22:02:02.230Z,100280.30
2018-02-17T22:04:29.814Z,100274.59
2018-02-17T22:06:57.358Z,100276.23
2018-02-17T22:09:25.047Z,100270.80
2018-02-17T22:11:53.450Z,100273.27
2018-02-17T22:14:21.092Z,100272.70
2018-02-17T22:16:48.702Z,100269.96
2018-02-17T22:19:16.435Z,100268.25
2018-02-17T22:21:44.251Z,100266.05
2018-02-17T22:24:12.051Z,100256.41
2018-02-17T22:26:40.687Z,100258.42
2018-02-17T22:29:08.235Z,100249.31
2018-02-17T22:31:35.840Z,100241.91
2018-02-17T22:34:03.389Z,100247.09
2018-02-17T22:36:30.952Z,100247.85
2018-02-17T22:38:58.556Z,100243.53
2018-02-17T22:41:26.093Z,100240.09
2018-02-17T22:43:53.692Z,100239.67
2018-02-17T22:46:21.253Z,100243.59
2018-02-17T22:48:48.806Z,100248.34
2018-02-17T22:51:16.401Z,100247.79
2018-02-17T22:53:43.946Z,100252.10
2018-02-17T22:56:11.543Z,100246.45
2018-02-17T22:58:39.090Z,100242.97
2018-02-17T23:01:06.693Z,100250.30
2018-02-17T23:03:34.246Z,100251.91
2018-02-17T23:06:01.831Z,100241.66
2018-02-17T23:08:29.426Z,100243.92
2018-02-17T23:10:57.917Z,100239.61
2018-02-17T23:13:25.516Z,100240.06
2018-02-17T23:15:53.072Z,100234.83
2018-02-17T23:18:20.655Z,100232.59
2018-02-17T23:20:48.207Z,100236.47
2018-02-17T23:23:15.798Z,100232.59
2018-02-17T23:25:43.389Z,100232.59
2018-02-17T23:28:10.955Z,100233.58
2018-02-17T23:30:38.565Z,100231.06
2018-02-17T23:33:06.113Z,100229.73
2018-02-17T23:35:33.662Z,100225.32
2018-02-17T23:38:01.255Z,100227.39
2018-02-17T23:40:28.802Z,100232.08
2018-02-17T23:42:56.874Z,100234.23
2018-02-17T23:45:24.474Z,100229.90
2018-02-17T23:47:52.089Z,100227.64
2018-02-17T23:50:19.651Z,100228.09
2018-02-17T23:52:47.247Z,100232.46
2018-02-17T23:55:15.589Z,100224.25
2018-02-17T23:57:43.186Z,100231.59
